createdAt,value
2022-09-05T00:08:00.480Z,69.35
2022-09-05T00:24:17.088Z,63.18
2022-09-05T00:32:01.171Z,62.08
2022-09-05T00:44:01.566Z,62.14
2022-09-05T00:56:02.039Z,62.55
2022-09-05T01:08:02.493Z,62.20
2022-09-05T01:20:18.370Z,62.04
2022-09-05T01:32:03.426Z,62.08
2022-09-05T01:44:03.813Z,62.56
2022-09-05T01:56:07.048Z,62.07
2022-09-05T02:08:04.747Z,60.96
2022-09-05T02:20:05.207Z,65.32
2022-09-05T02:32:05.659Z,62.17
2022-09-05T02:45:12.666Z,61.39
2022-09-05T02:57:59.893Z,63.23
2022-09-05T03:08:07.024Z,63.54
2022-09-05T03:20:07.470Z,69.64
2022-09-05T03:32:07.951Z,73.40
2022-09-05T03:44:08.383Z,73.88
2022-09-05T03:57:25.099Z,69.36
2022-09-05T04:08:41.954Z,66.08
2022-09-05T04:20:09.775Z,64.49
2022-09-05T04:32:19.027Z,67.71
2022-09-05T04:44:10.650Z,73.38
2022-09-05T04:56:11.107Z,65.45
2022-09-05T05:08:11.757Z,63.40
2022-09-05T05:20:40.235Z,65.04
2022-09-05T05:32:12.437Z,74.26
2022-09-05T05:44:12.950Z,72.39
2022-09-05T05:56:13.368Z,70.15
2022-09-05T06:10:03.795Z,64.21
2022-09-05T06:22:05.833Z,64.73
2022-09-05T06:32:14.769Z,63.55
2022-09-05T06:44:15.236Z,62.97
2022-09-05T06:56:25.587Z,69.02
2022-09-05T07:08:33.111Z,64.53
2022-09-05T07:20:16.563Z,64.21
2022-09-05T07:32:19.268Z,57.28
2022-09-05T07:44:17.468Z,58.65
2022-09-05T07:56:49.253Z,55.96
2022-09-05T08:08:18.346Z,56.61
2022-09-05T08:20:18.827Z,54.58
2022-09-05T08:32:19.296Z,53.62
2022-09-05T08:46:40.507Z,52.17
2022-09-05T08:56:20.724Z,51.79
2022-09-05T09:08:22.260Z,50.23
2022-09-05T09:20:21.092Z,47.34
2022-09-05T09:32:21.565Z,50.61
2022-09-05T09:44:21.991Z,50.97
2022-09-05T09:56:22.506Z,49.29
2022-09-05T10:11:18.807Z,49.25
2022-09-05T10:20:28.686Z,47.44
2022-09-05T10:35:05.253Z,44.77
2022-09-05T10:44:24.324Z,46.36
2022-09-05T10:56:28.525Z,43.86
2022-09-05T11:08:25.219Z,42.61
2022-09-05T11:20:34.825Z,40.23
2022-09-05T11:39:46.035Z,42.60
2022-09-05T11:44:27.317Z,37.27
2022-09-05T11:56:28.729Z,37.89
2022-09-05T12:08:28.693Z,38.97
2022-09-05T12:20:27.970Z,35.45
2022-09-05T12:34:46.767Z,37.27
2022-09-05T12:44:41.359Z,34.80
2022-09-05T12:58:07.451Z,34.25
2022-09-05T13:08:29.819Z,36.99
2022-09-05T13:20:30.243Z,36.06
2022-09-05T13:37:59.532Z,37.57
2022-09-05T13:44:31.116Z,36.96
2022-09-05T13:56:31.631Z,36.20
2022-09-05T14:08:32.096Z,37.25
2022-09-05T14:20:32.524Z,34.85
2022-09-05T14:37:43.228Z,35.79
2022-09-05T14:44:33.478Z,39.35
2022-09-05T15:00:05.349Z,40.09
2022-09-05T15:11:24.726Z,38.63
2022-09-05T15:20:34.816Z,44.11
2022-09-05T15:32:35.256Z,40.47
2022-09-05T15:44:53.214Z,41.75
2022-09-05T15:56:36.200Z,46.20
2022-09-05T16:10:46.268Z,48.90
2022-09-05T16:23:26.369Z,48.04
2022-09-05T16:32:37.553Z,50.00
2022-09-05T16:44:38.196Z,50.84
2022-09-05T16:56:38.454Z,52.30
2022-09-05T17:08:38.950Z,53.52
2022-09-05T17:20:39.384Z,54.27
2022-09-05T17:32:39.850Z,53.98
2022-09-05T17:44:40.266Z,56.31
2022-09-05T17:56:40.759Z,57.23
2022-09-05T18:08:41.201Z,57.50
2022-09-05T18:20:41.644Z,58.27
2022-09-05T18:32:42.090Z,59.44
2022-09-05T18:44:42.579Z,60.65
2022-09-05T18:57:19.889Z,59.95
2022-09-05T19:08:43.491Z,58.75
2022-09-05T19:20:43.912Z,61.31
2022-09-05T19:36:53.600Z,60.54
2022-09-05T19:47:48.648Z,60.41
2022-09-05T19:56:45.311Z,60.22
2022-09-05T20:08:45.737Z,59.51
2022-09-05T20:20:46.221Z,60.41
2022-09-05T20:32:46.654Z,63.63
2022-09-05T20:44:47.109Z,66.28
2022-09-05T20:56:47.571Z,74.24
2022-09-05T21:08:48.051Z,67.54
2022-09-05T21:20:48.478Z,67.25
2022-09-05T21:32:48.939Z,73.42
2022-09-05T21:47:45.067Z,64.76
2022-09-05T21:59:19.174Z,62.43
2022-09-05T22:09:11.356Z,62.15
2022-09-05T22:21:02.929Z,61.88
2022-09-05T22:32:51.185Z,61.56
2022-09-05T22:44:51.689Z,61.62
2022-09-05T22:56:52.154Z,61.94
2022-09-05T23:08:52.569Z,63.83
2022-09-05T23:20:52.997Z,67.79
2022-09-05T23:32:53.509Z,71.23
2022-09-05T23:44:53.945Z,64.27
2022-09-05T23:56:54.380Z,64.00
